createdAt,value
2024-02-18T00:00:56.731Z,101336.47
2024-02-18T00:03:25.202Z,101338.97
2024-02-18T00:05:53.157Z,101346.25
2024-02-18T00:08:21.004Z,101344.38
2024-02-18T00:10:48.931Z,101340.84
2024-02-18T00:13:18.251Z,101351.63
2024-02-18T00:19:18.222Z,101340.00
2024-02-18T00:21:46.202Z,101333.78
2024-02-18T00:24:15.208Z,101339.81
2024-02-18T00:26:53.975Z,101340.00
2024-02-18T00:29:27.326Z,101346.25
2024-02-18T00:31:55.151Z,101339.81
2024-02-18T00:34:24.372Z,101340.84
2024-02-18T00:36:53.683Z,101342.50
2024-02-18T00:39:21.803Z,101340.84
2024-02-18T00:41:49.788Z,101351.63
2024-02-18T00:44:18.451Z,101351.63
2024-02-18T00:46:57.176Z,101349.97
2024-02-18T00:49:31.552Z,101360.78
2024-02-18T00:51:59.472Z,101358.06
2024-02-18T00:54:27.332Z,101354.56
2024-02-18T00:56:55.163Z,101357.25
2024-02-18T01:06:28.058Z,101368.22
2024-02-18T01:08:55.949Z,101373.63
2024-02-18T01:11:23.895Z,101362.81
2024-02-18T01:13:51.822Z,101373.63
2024-02-18T01:16:19.664Z,101367.38
2024-02-18T01:18:47.699Z,101368.22
2024-02-18T01:21:17.686Z,101372.97
2024-02-18T01:23:47.153Z,101366.56
2024-02-18T01:26:15.010Z,101368.41
2024-02-18T01:28:43.169Z,101376.50
2024-02-18T01:38:04.902Z,101376.69
2024-02-18T01:40:34.388Z,101374.81
2024-02-18T01:43:02.303Z,101384.78
2024-02-18T01:45:30.191Z,101381.06
2024-02-18T01:47:58.035Z,101382.75
2024-02-18T01:50:26.051Z,101379.19
2024-02-18T01:52:53.986Z,101377.53
2024-02-18T01:55:22.039Z,101381.06
2024-02-18T01:57:51.315Z,101379.41
2024-02-18T02:04:30.671Z,101372.31
2024-02-18T02:06:58.644Z,101382.09
2024-02-18T02:09:26.608Z,101383.09
2024-02-18T02:11:54.555Z,101383.09
2024-02-18T02:14:29.672Z,101379.56
2024-02-18T02:16:57.611Z,101375.00
2024-02-18T02:19:25.498Z,101381.44
2024-02-18T02:21:53.387Z,101376.03
2024-02-18T02:24:21.317Z,101381.44
2024-02-18T02:26:50.205Z,101387.50
2024-02-18T02:32:51.246Z,101386.84
2024-02-18T02:35:19.508Z,101390.56
2024-02-18T02:37:47.357Z,101389.72
2024-02-18T02:40:15.549Z,101390.56
2024-02-18T02:42:43.438Z,101382.47
2024-02-18T02:45:31.941Z,101379.78
2024-02-18T02:48:01.265Z,101386.00
2024-02-18T02:50:29.152Z,101390.56
2024-02-18T02:52:56.968Z,101392.22
2024-02-18T02:55:24.855Z,101388.88
2024-02-18T02:57:54.334Z,101391.41
2024-02-18T03:07:26.758Z,101391.56
2024-02-18T03:09:54.652Z,101394.28
2024-02-18T03:12:22.613Z,101390.75
2024-02-18T03:25:27.967Z,101411.50
2024-02-18T03:27:56.102Z,101411.50
2024-02-18T03:41:28.165Z,101428.69
2024-02-18T03:43:57.473Z,101434.09
2024-02-18T03:49:47.309Z,101428.69
2024-02-18T03:52:15.165Z,101434.97
2024-02-18T03:54:43.052Z,101433.25
2024-02-18T03:57:10.868Z,101433.25
2024-02-18T04:10:18.035Z,101453.19
2024-02-18T04:12:48.051Z,101450.50
2024-02-18T04:15:35.612Z,101448.63
2024-02-18T04:18:03.534Z,101454.03
2024-02-18T04:20:31.420Z,101446.97
2024-02-18T04:22:59.220Z,101455.06
2024-02-18T04:25:28.451Z,101453.19
2024-02-18T04:27:56.306Z,101457.75
2024-02-18T04:30:24.176Z,101453.19
2024-02-18T04:32:52.131Z,101451.50
2024-02-18T04:35:19.966Z,101449.66
2024-02-18T04:37:47.782Z,101450.66
2024-02-18T04:40:15.568Z,101450.66
2024-02-18T04:42:44.811Z,101455.22
2024-02-18T04:52:06.912Z,101459.78
2024-02-18T04:54:37.908Z,101450.66
2024-02-18T04:57:07.849Z,101457.09
2024-02-18T04:59:37.280Z,101457.09
2024-02-18T05:05:26.915Z,101450.03
2024-02-18T05:07:55.013Z,101452.72
2024-02-18T05:10:22.809Z,101447.34
2024-02-18T05:12:50.652Z,101452.72
2024-02-18T05:22:13.671Z,101466.41
2024-02-18T05:24:42.561Z,101461.00
2024-02-18T05:27:10.419Z,101467.22
2024-02-18T05:29:38.204Z,101461.00
2024-02-18T05:32:43.064Z,101469.94
2024-02-18T05:35:12.289Z,101466.41
2024-02-18T05:37:41.988Z,101463.88
2024-02-18T05:40:10.405Z,101466.41
2024-02-18T05:42:38.286Z,101465.56
2024-02-18T05:59:14.945Z,101480.06
2024-02-18T06:13:00.816Z,101493.56
2024-02-18T06:15:30.126Z,101494.59
2024-02-18T06:17:59.359Z,101501.66
2024-02-18T06:20:27.559Z,101505.38
2024-02-18T06:22:55.353Z,101512.44
2024-02-18T06:25:23.196Z,101513.47
2024-02-18T06:27:51.547Z,101518.88
2024-02-18T06:44:27.498Z,101524.44
2024-02-18T06:50:59.803Z,101533.41
2024-02-18T06:53:27.623Z,101533.41
2024-02-18T06:55:55.618Z,101536.94
2024-02-18T06:58:23.425Z,101534.22
2024-02-18T07:07:56.518Z,101542.31
2024-02-18T07:10:24.340Z,101542.31
2024-02-18T07:12:52.275Z,101544.19
2024-02-18T07:15:20.292Z,101534.41
2024-02-18T07:46:31.959Z,101544.81
2024-02-18T07:49:01.322Z,101543.44
2024-02-18T07:51:29.921Z,101547.63
2024-02-18T07:53:57.775Z,101546.59
2024-02-18T07:56:25.586Z,101552.66
2024-02-18T07:58:53.405Z,101542.69
2024-02-18T08:01:46.975Z,101545.41
2024-02-18T08:04:16.365Z,101549.78
2024-02-18T08:06:45.351Z,101550.81
2024-02-18T08:09:16.450Z,101553.50
2024-02-18T08:11:44.823Z,101552.66
2024-02-18T08:14:12.648Z,101553.50
2024-02-18T08:20:03.608Z,101547.09
2024-02-18T08:22:31.513Z,101548.75
2024-02-18T08:24:59.739Z,101547.56
2024-02-18T08:27:28.901Z,101546.34
2024-02-18T08:29:56.847Z,101547.38
2024-02-18T08:36:34.890Z,101532.19
2024-02-18T08:39:04.386Z,101544.69
2024-02-18T08:41:32.348Z,101546.34
2024-02-18T08:44:00.174Z,101545.31
2024-02-18T08:53:42.538Z,101552.03
2024-02-18T08:56:11.976Z,101545.59
2024-02-18T08:58:39.785Z,101545.59
2024-02-18T09:01:07.673Z,101540.22
2024-02-18T09:03:35.593Z,101533.97
2024-02-18T09:06:03.477Z,101531.94
2024-02-18T09:08:31.324Z,101535.94
2024-02-18T09:10:59.207Z,101537.41
2024-02-18T09:13:28.465Z,101525.41
2024-02-18T09:15:57.458Z,101530.81
2024-02-18T09:32:51.343Z,101534.09
2024-02-18T09:35:20.986Z,101533.22
2024-02-18T09:37:48.903Z,101528.69
2024-02-18T09:40:16.763Z,101527.66
2024-02-18T09:42:44.627Z,101525.78
2024-02-18T09:45:15.333Z,101526.81
2024-02-18T09:47:43.665Z,101537.41
2024-02-18T09:50:12.831Z,101535.59
2024-02-18T09:52:44.408Z,101535.59
2024-02-18T09:55:13.188Z,101532.03
2024-02-18T09:57:41.255Z,101534.53
2024-02-18T10:00:10.606Z,101531.00
2024-02-18T10:02:41.780Z,101521.88
2024-02-18T10:05:12.047Z,101519.19
2024-02-18T10:07:40.049Z,101513.78
2024-02-18T10:10:09.985Z,101524.41
2024-02-18T10:12:37.960Z,101517.13
2024-02-18T10:15:06.433Z,101515.28
2024-02-18T10:28:11.657Z,101501.22
2024-02-18T10:30:40.165Z,101503.91
2024-02-18T10:33:46.016Z,101493.13
2024-02-18T10:36:14.547Z,101492.09
2024-02-18T10:38:44.585Z,101489.38
2024-02-18T10:41:14.178Z,101494.41
2024-02-18T10:43:45.685Z,101491.72
2024-02-18T10:46:13.603Z,101489.00
2024-02-18T10:52:47.763Z,101477.84
2024-02-18T10:55:19.423Z,101478.50
2024-02-18T10:57:49.856Z,101474.13
2024-02-18T11:00:20.347Z,101477.50
2024-02-18T11:02:50.332Z,101470.03
2024-02-18T11:05:19.743Z,101469.03
2024-02-18T11:07:47.870Z,101459.72
2024-02-18T11:10:15.813Z,101464.28
2024-02-18T11:12:43.677Z,101464.72
2024-02-18T11:15:12.506Z,101460.81
2024-02-18T11:21:14.691Z,101448.78
2024-02-18T11:23:47.651Z,101444.03
2024-02-18T11:26:15.449Z,101444.66
2024-02-18T11:28:45.062Z,101440.75
2024-02-18T11:31:20.191Z,101444.09
2024-02-18T11:34:06.569Z,101444.09
2024-02-18T11:36:35.859Z,101440.56
2024-02-18T11:39:04.926Z,101442.06
2024-02-18T11:41:33.845Z,101438.69
2024-02-18T11:44:02.021Z,101436.66
2024-02-18T11:46:30.090Z,101428.94
2024-02-18T11:56:14.328Z,101425.06
2024-02-18T11:58:42.211Z,101427.16
2024-02-18T12:01:10.088Z,101422.56
2024-02-18T12:03:37.927Z,101425.91
2024-02-18T12:06:06.262Z,101420.88
2024-02-18T12:08:34.285Z,101413.81
2024-02-18T12:11:02.444Z,101405.91
2024-02-18T12:13:31.687Z,101408.81
2024-02-18T12:15:59.607Z,101418.13
2024-02-18T12:18:28.597Z,101404.63
2024-02-18T12:20:56.538Z,101401.72
2024-02-18T12:23:24.443Z,101407.97
2024-02-18T12:25:52.357Z,101402.56
2024-02-18T12:28:20.467Z,101402.19
2024-02-18T12:30:51.500Z,101403.19
2024-02-18T12:40:12.887Z,101390.16
2024-02-18T12:42:52.092Z,101391.00
2024-02-18T12:48:32.795Z,101385.97
2024-02-18T12:51:11.364Z,101382.63
2024-02-18T12:53:39.654Z,101378.25
2024-02-18T12:56:07.614Z,101383.00
2024-02-18T12:58:36.850Z,101379.66
2024-02-18T13:01:05.248Z,101378.00
2024-02-18T13:03:42.351Z,101374.66
2024-02-18T13:06:18.169Z,101386.47
2024-02-18T13:08:46.055Z,101370.06
2024-02-18T13:11:17.503Z,101373.44
2024-02-18T13:13:45.678Z,101367.81
2024-02-18T13:16:13.514Z,101363.06
2024-02-18T13:18:44.024Z,101368.47
2024-02-18T13:21:13.554Z,101362.88
2024-02-18T13:23:42.626Z,101358.69
2024-02-18T13:26:10.571Z,101355.34
2024-02-18T13:28:38.489Z,101349.94
2024-02-18T13:31:06.637Z,101354.31
2024-02-18T13:33:35.127Z,101353.47
2024-02-18T13:36:03.595Z,101350.38
2024-02-18T13:38:32.796Z,101347.31
2024-02-18T13:41:00.590Z,101349.81
2024-02-18T13:43:28.814Z,101346.94
2024-02-18T13:45:56.745Z,101345.72
2024-02-18T13:48:24.753Z,101359.00
2024-02-18T13:50:52.636Z,101347.38
2024-02-18T13:53:20.451Z,101350.72
2024-02-18T13:55:49.743Z,101349.69
2024-02-18T13:58:17.603Z,101351.72
2024-02-18T14:00:45.548Z,101343.63
2024-02-18T14:03:13.522Z,101346.16
2024-02-18T14:05:42.227Z,101353.22
2024-02-18T14:08:10.063Z,101357.78
2024-02-18T14:10:37.861Z,101352.38
2024-02-18T14:13:07.467Z,101351.56
2024-02-18T14:15:36.373Z,101350.72
2024-02-18T14:18:04.296Z,101349.69
2024-02-18T14:20:32.165Z,101343.28
2024-02-18T14:23:00.369Z,101349.50
2024-02-18T14:25:28.180Z,101348.66
2024-02-18T14:27:55.948Z,101346.97
2024-02-18T14:30:25.166Z,101348.19
2024-02-18T14:32:52.982Z,101340.31
2024-02-18T14:35:21.228Z,101347.38
2024-02-18T14:37:49.988Z,101349.03
2024-02-18T14:40:17.990Z,101344.03
2024-02-18T14:42:45.961Z,101343.00
2024-02-18T14:45:14.830Z,101334.91
2024-02-18T14:48:47.408Z,101334.91
2024-02-18T14:51:16.742Z,101333.22
2024-02-18T14:53:50.416Z,101337.78
2024-02-18T14:56:21.355Z,101333.59
2024-02-18T14:58:50.153Z,101334.00
2024-02-18T15:01:18.644Z,101334.38
2024-02-18T15:03:46.639Z,101334.38
2024-02-18T15:06:14.971Z,101337.09
2024-02-18T15:08:44.334Z,101328.97
2024-02-18T15:11:12.205Z,101330.00
2024-02-18T15:13:40.030Z,101323.59
2024-02-18T15:16:08.321Z,101321.88
2024-02-18T15:19:13.564Z,101327.28
2024-02-18T15:21:41.655Z,101330.00
2024-02-18T15:24:10.981Z,101327.28
2024-02-18T15:26:42.569Z,101324.81
2024-02-18T15:29:12.342Z,101324.81
2024-02-18T15:31:40.232Z,101324.81
2024-02-18T15:34:09.444Z,101322.28
2024-02-18T15:36:38.722Z,101321.63
2024-02-18T15:39:07.050Z,101321.63
2024-02-18T15:41:36.272Z,101323.72
2024-02-18T15:44:06.129Z,101326.59
2024-02-18T15:46:33.943Z,101327.81
2024-02-18T15:49:01.886Z,101314.69
2024-02-18T15:51:30.097Z,101319.44
2024-02-18T15:53:57.960Z,101325.91
2024-02-18T15:56:25.840Z,101314.44
2024-02-18T15:58:55.083Z,101325.41
2024-02-18T16:01:22.969Z,101324.59
2024-02-18T16:03:50.843Z,101321.25
2024-02-18T16:06:19.470Z,101317.88
2024-02-18T16:08:47.300Z,101319.94
2024-02-18T16:11:16.707Z,101319.09
2024-02-18T16:13:45.145Z,101322.63
2024-02-18T16:16:15.883Z,101321.97
2024-02-18T16:19:02.820Z,101325.72
2024-02-18T16:21:30.789Z,101320.31
2024-02-18T16:24:01.667Z,101313.22
2024-02-18T16:26:29.628Z,101318.63
2024-02-18T16:28:57.560Z,101318.63
2024-02-18T16:31:26.810Z,101316.13
2024-02-18T16:33:54.713Z,101319.66
2024-02-18T16:36:22.554Z,101324.03
2024-02-18T16:38:50.490Z,101322.38
2024-02-18T16:41:18.585Z,101322.38
2024-02-18T16:43:46.439Z,101317.81
2024-02-18T16:46:14.397Z,101313.22
2024-02-18T16:48:43.864Z,101313.22
2024-02-18T16:51:14.882Z,101317.81
2024-02-18T16:53:44.271Z,101314.25
2024-02-18T16:56:12.562Z,101323.19
2024-02-18T16:58:40.346Z,101315.31
2024-02-18T17:01:08.310Z,101320.72
2024-02-18T17:03:36.369Z,101323.41
2024-02-18T17:06:06.015Z,101318.19
2024-02-18T17:08:33.817Z,101320.06
2024-02-18T17:11:01.714Z,101310.09
2024-02-18T17:13:29.558Z,101318.19
2024-02-18T17:15:57.705Z,101317.34
2024-02-18T17:18:26.170Z,101307.56
2024-02-18T17:20:53.285Z,101304.88
2024-02-18T17:23:22.461Z,101306.94
2024-02-18T17:25:50.437Z,101307.78
2024-02-18T17:28:18.267Z,101312.34
2024-02-18T17:30:46.171Z,101307.94
2024-02-18T17:33:14.176Z,101305.25
2024-02-18T17:35:42.123Z,101299.03
2024-02-18T17:38:09.942Z,101294.44
2024-02-18T17:40:39.210Z,101291.75
2024-02-18T17:43:07.082Z,101297.16
2024-02-18T17:45:35.157Z,101286.34
2024-02-18T17:48:40.550Z,101283.66
2024-02-18T17:51:08.388Z,101280.97
2024-02-18T17:53:36.227Z,101283.66
2024-02-18T17:56:05.917Z,101281.81
2024-02-18T17:58:33.816Z,101280.13
2024-02-18T18:01:02.858Z,101283.66
2024-02-18T18:03:31.358Z,101282.00
2024-02-18T18:06:01.064Z,101273.91
2024-02-18T18:08:29.091Z,101274.72
2024-02-18T18:10:57.020Z,101270.38
2024-02-18T18:13:26.364Z,101268.69
2024-02-18T18:15:55.711Z,101274.06
2024-02-18T18:18:23.693Z,101266.19
2024-02-18T18:20:51.535Z,101265.34
2024-02-18T18:23:19.437Z,101268.88
2024-02-18T18:25:47.253Z,101266.19
2024-02-18T18:28:15.730Z,101259.09
2024-02-18T18:30:45.216Z,101260.78
2024-02-18T18:33:13.102Z,101266.19
2024-02-18T18:35:40.944Z,101261.78
2024-02-18T18:38:09.001Z,101260.78
2024-02-18T18:40:36.818Z,101252.03
2024-02-18T18:43:05.530Z,101254.56
2024-02-18T18:45:33.403Z,101252.03
2024-02-18T18:48:02.769Z,101245.81
2024-02-18T18:50:30.604Z,101242.28
2024-02-18T18:53:00.420Z,101245.81
2024-02-18T18:55:28.539Z,101236.88
2024-02-18T18:57:59.838Z,101240.41
2024-02-18T19:00:29.432Z,101238.72
2024-02-18T19:02:57.392Z,101234.19
2024-02-18T19:05:26.814Z,101232.50
2024-02-18T19:07:54.764Z,101231.66
2024-02-18T19:10:22.635Z,101229.78
2024-02-18T19:12:50.526Z,101230.84
2024-02-18T19:15:19.744Z,101233.53
2024-02-18T19:17:49.000Z,101238.72
2024-02-18T19:27:24.314Z,101239.59
2024-02-18T19:29:52.198Z,101237.88
2024-02-18T19:32:21.564Z,101239.59
2024-02-18T19:34:49.534Z,101235.84
2024-02-18T19:37:17.576Z,101236.88
2024-02-18T19:39:46.224Z,101241.25
2024-02-18T19:42:14.095Z,101238.53
2024-02-18T19:44:43.638Z,101242.06
2024-02-18T19:47:11.661Z,101233.16
2024-02-18T19:56:33.318Z,101233.78
2024-02-18T19:59:01.161Z,101235.84
2024-02-18T20:01:30.510Z,101229.63
2024-02-18T20:07:43.427Z,101235.84
2024-02-18T20:10:11.640Z,101230.63
2024-02-18T20:12:39.565Z,101228.78
2024-02-18T20:15:07.784Z,101227.09
2024-02-18T20:17:38.031Z,101221.69
2024-02-18T20:34:14.781Z,101219.22
2024-02-18T20:36:45.196Z,101208.41
2024-02-18T20:39:13.123Z,101216.50
2024-02-18T20:41:40.914Z,101205.72
2024-02-18T20:44:08.943Z,101204.84
2024-02-18T20:46:37.344Z,101202.16
2024-02-18T21:00:02.344Z,101191.34
2024-02-18T21:02:30.199Z,101190.34
2024-02-18T21:08:30.727Z,101193.06
2024-02-18T21:10:58.591Z,101173.50
2024-02-18T21:13:29.642Z,101178.91
2024-02-18T21:15:58.913Z,101178.06
2024-02-18T21:18:27.810Z,101178.06
2024-02-18T21:24:27.710Z,101178.91
2024-02-18T21:26:55.594Z,101183.66
2024-02-18T21:29:23.431Z,101179.13
2024-02-18T21:31:52.690Z,101175.78
2024-02-18T21:52:21.292Z,101162.28
2024-02-18T21:54:50.643Z,101157.06
2024-02-18T21:57:18.736Z,101158.75
2024-02-18T21:59:46.571Z,101166.84
2024-02-18T22:02:14.450Z,101162.28
2024-02-18T22:05:00.694Z,101166.84
2024-02-18T22:07:30.197Z,101164.97
2024-02-18T22:09:58.142Z,101161.44
2024-02-18T22:12:26.043Z,101155.41
2024-02-18T22:14:53.983Z,101154.34
2024-02-18T22:17:21.812Z,101152.69
2024-02-18T22:20:08.328Z,101152.69
2024-02-18T22:22:37.593Z,101150.00
2024-02-18T22:25:07.507Z,101150.00
2024-02-18T22:27:35.503Z,101161.81
2024-02-18T22:30:05.888Z,101156.41
2024-02-18T22:32:34.420Z,101155.56
2024-02-18T22:52:33.183Z,101147.88
2024-02-18T22:55:01.087Z,101142.31
2024-02-18T22:57:28.938Z,101146.00
2024-02-18T22:59:56.776Z,101136.91
2024-02-18T23:02:24.614Z,101142.31
2024-02-18T23:19:01.194Z,101111.97
2024-02-18T23:25:43.636Z,101108.22
2024-02-18T23:28:11.572Z,101107.41
2024-02-18T23:30:39.488Z,101105.53
2024-02-18T23:33:07.548Z,101100.34
2024-02-18T23:42:30.550Z,101093.25
2024-02-18T23:44:58.409Z,101097.00
2024-02-18T23:47:26.366Z,101090.78
2024-02-18T23:57:47.751Z,101090.78
